.
WxDataArchive / Data Records for 2014-03-12
2014-03-11 March 2014 2014-03-13

Data Records for Wednesday, 12 March 2014

Time	Temp	Chill	HIndex	Humid	Dewpt	 Wind 	HiWind	WindDir	Rain 	Barom
-----	----	-----	------	-----	-----	------	------	-------	-----	-----
00:00	40.3	40.3	40.3	77	33.7	2	7	112	0.00	29.639 
00:05	40.3	40.3	40.3	78	34.0	2	12	90	0.00	29.639 
00:10	40.2	40.2	40.2	78	33.9	1	5	90	0.00	29.639 
00:15	40.1	40.1	40.1	79	34.1	1	5	90	0.00	29.636 
00:20	39.9	39.9	39.9	79	33.9	1	4	90	0.00	29.636 
00:25	39.8	39.8	39.8	80	34.1	1	5	112	0.00	29.636 
00:30	39.6	39.6	39.6	81	34.3	1	5	112	0.00	29.629 
00:35	39.5	39.5	39.5	81	34.2	2	9	112	0.00	29.629 
00:40	39.3	39.3	39.3	81	34.0	2	5	68	0.00	29.629 
00:45	39.3	39.3	39.3	82	34.3	1	5	90	0.00	29.621 
00:50	39.2	39.2	39.2	82	34.2	2	6	90	0.00	29.621 
00:55	39.1	39.1	39.1	83	34.4	2	7	112	0.00	29.621 
01:00	38.9	38.9	38.9	83	34.2	3	7	112	0.00	29.620 
01:05	38.8	38.8	38.8	83	34.1	2	6	112	0.00	29.620 
01:10	38.8	38.8	38.8	84	34.4	2	6	112	0.00	29.620 
01:15	38.6	38.6	38.6	84	34.2	1	6	112	0.00	29.605 
01:20	38.5	38.5	38.5	84	34.1	1	5	90	0.00	29.605 
01:25	38.5	38.5	38.5	84	34.1	1	5	90	0.00	29.605 
01:30	38.3	38.3	38.3	85	34.2	1	5	68	0.00	29.601 
01:35	38.3	38.3	38.3	85	34.2	2	8	90	0.00	29.601 
01:40	38.3	38.3	38.3	85	34.2	1	6	90	0.00	29.601 
01:45	38.3	38.3	38.3	85	34.2	1	5	112	0.00	29.603 
01:50	38.2	38.2	38.2	85	34.1	1	4	22	0.00	29.603 
01:55	38.2	38.2	38.2	85	34.1	1	5	90	0.00	29.603 
02:00	38.0	38.0	38.0	85	33.9	1	5	338	0.00	29.594 
02:05	38.0	38.0	38.0	85	33.9	1	7	112	0.00	29.594 
02:10	37.9	37.9	37.9	86	34.1	1	4	112	0.00	29.594 
02:15	37.9	37.9	37.9	86	34.1	1	5	90	0.00	29.573 
02:20	37.9	37.9	37.9	86	34.1	1	6	112	0.00	29.573 
02:25	37.9	37.9	37.9	86	34.1	2	5	112	0.00	29.573 
02:30	37.8	37.8	37.8	86	34.0	1	4	112	0.00	29.570 
02:35	37.8	37.8	37.8	86	34.0	2	7	112	0.00	29.570 
02:40	37.8	37.8	37.8	86	34.0	2	6	112	0.00	29.570 
02:45	37.8	37.8	37.8	86	34.0	1	5	112	0.00	29.571 
02:50	37.8	37.8	37.8	86	34.0	1	4	45	0.00	29.571 
02:55	37.8	37.8	37.8	86	34.0	1	4	90	0.00	29.571 
03:00	37.8	37.8	37.8	86	34.0	2	9	112	0.00	29.564 
03:05	37.8	37.8	37.8	86	34.0	2	9	112	0.00	29.564 
03:10	37.8	37.8	37.8	86	34.0	2	6	112	0.00	29.564 
03:15	37.8	37.8	37.8	86	34.0	2	7	135	0.00	29.550 
03:20	37.8	37.8	37.8	86	34.0	2	5	112	0.00	29.550 
03:25	37.6	37.6	37.6	86	33.8	2	7	112	0.00	29.550 
03:30	37.6	37.6	37.6	86	33.8	2	6	112	0.00	29.517 
03:35	37.6	37.6	37.6	86	33.8	2	6	112	0.00	29.517 
03:40	37.6	37.6	37.6	85	33.5	2	10	90	0.00	29.517 
03:45	37.6	37.6	37.6	87	34.1	3	10	112	0.00	29.510 
03:50	37.8	34.8	37.8	87	34.3	4	18	112	0.00	29.510 
03:55	37.9	34.9	37.9	87	34.4	4	13	112	0.00	29.510 
04:00	37.8	34.8	37.8	87	34.3	4	12	112	0.00	29.497 
04:05	37.8	37.8	37.8	87	34.3	3	9	112	0.00	29.497 
04:10	37.6	37.6	37.6	87	34.1	3	12	112	0.00	29.497 
04:15	37.6	37.6	37.6	87	34.1	3	7	90	0.00	29.485 
04:20	37.5	34.4	37.5	88	34.3	4	13	112	0.00	29.485 
04:25	37.3	33.3	37.3	88	34.1	5	17	112	0.00	29.485 
04:30	37.2	34.1	37.2	88	34.0	4	14	112	0.01	29.482 
04:35	36.9	32.8	36.9	89	34.0	5	13	90	0.00	29.482 
04:40	36.8	31.9	36.8	89	33.9	6	16	112	0.01	29.482 
04:45	36.6	33.4	36.6	90	33.9	4	10	90	0.00	29.486 
04:50	36.5	36.5	36.5	90	33.9	3	10	112	0.01	29.486 
04:55	36.3	36.3	36.3	90	33.7	2	6	90	0.00	29.486 
05:00	36.0	36.0	36.0	91	33.6	3	9	112	0.01	29.498 
05:05	35.9	35.9	35.9	91	33.5	3	9	112	0.00	29.498 
05:10	35.5	35.5	35.5	91	33.1	2	7	90	0.01	29.498 
05:15	35.0	35.0	35.0	91	32.6	1	5	45	0.00	29.500 
05:20	34.6	34.6	34.6	91	32.2	2	4	112	0.01	29.500 
05:25	34.1	34.1	34.1	91	31.8	1	6	90	0.00	29.500 
05:30	33.7	33.7	33.7	91	31.4	1	3	90	0.00	29.500 
05:35	33.4	33.4	33.4	91	31.1	1	5	90	0.00	29.500 
05:40	33.1	33.1	33.1	91	30.8	1	7	68	0.00	29.500 
05:45	32.9	32.9	32.9	92	30.8	2	5	112	0.00	29.494 
05:50	32.9	32.9	32.9	92	30.8	1	5	135	0.00	29.494 
05:55	32.8	32.8	32.8	92	30.7	2	4	112	0.00	29.494 
06:00	32.8	32.8	32.8	92	30.7	1	3	68	0.00	29.498 
06:05	32.7	32.7	32.7	92	30.6	1	4	112	0.00	29.498 
06:10	32.7	32.7	32.7	92	30.6	1	7	112	0.00	29.498 
06:15	32.5	32.5	32.5	93	30.7	3	9	112	0.00	29.499 
06:20	32.4	32.4	32.4	93	30.6	1	5	90	0.00	29.499 
06:25	32.4	32.4	32.4	93	30.6	1	4	135	0.00	29.499 
06:30	32.4	32.4	32.4	93	30.6	1	4	135	0.00	29.498 
06:35	32.5	32.5	32.5	93	30.7	1	5	135	0.00	29.498 
06:40	32.4	32.4	32.4	93	30.6	0	2	135	0.00	29.498 
06:45	32.4	32.4	32.4	93	30.6	0	0	---	0.00	29.498 
06:50	32.4	32.4	32.4	94	30.9	0	0	---	0.00	29.498 
06:55	32.2	32.2	32.2	94	30.7	0	0	---	0.00	29.498 
07:00	32.1	32.1	32.1	94	30.6	0	0	---	0.00	29.494 
07:05	32.1	32.1	32.1	94	30.6	0	0	---	0.00	29.494 
07:10	31.9	31.9	31.9	94	30.4	0	0	---	0.00	29.494 
07:15	31.9	31.9	31.9	94	30.4	0	0	---	0.00	29.487 
07:20	31.8	31.8	31.8	94	30.3	0	0	---	0.00	29.487 
07:25	31.8	31.8	31.8	94	30.3	0	0	---	0.00	29.487 
07:30	31.6	31.6	31.6	94	30.1	0	0	---	0.00	29.521 
07:35	31.5	31.5	31.5	94	30.0	0	0	---	0.00	29.521 
07:40	31.3	31.3	31.3	94	29.8	0	0	---	0.00	29.521 
07:45	31.2	31.2	31.2	94	29.7	0	0	---	0.00	29.522 
07:50	30.9	30.9	30.9	94	29.4	0	0	---	0.00	29.522 
07:55	30.7	30.7	30.7	94	29.2	0	0	---	0.00	29.522 
08:00	30.6	30.6	30.6	94	29.1	0	0	---	0.00	29.525 
08:05	30.3	30.3	30.3	94	28.8	0	0	---	0.00	29.525 
08:10	30.0	30.0	30.0	94	28.5	0	0	---	0.00	29.525 
08:15	29.7	29.7	29.7	94	28.2	0	0	---	0.00	29.513 
08:20	29.4	29.4	29.4	94	27.9	0	0	---	0.00	29.513 
08:25	29.3	29.3	29.3	94	27.8	0	0	---	0.00	29.513 
08:30	29.1	29.1	29.1	94	27.6	0	0	---	0.00	29.528 
08:35	29.0	29.0	29.0	94	27.5	0	0	---	0.00	29.528 
08:40	29.0	29.0	29.0	94	27.5	0	0	---	0.00	29.528 
08:45	28.8	28.8	28.8	94	27.3	0	0	---	0.00	29.524 
08:50	28.7	28.7	28.7	94	27.2	0	0	---	0.00	29.524 
08:55	28.7	28.7	28.7	94	27.2	0	0	---	0.00	29.524 
09:00	28.7	28.7	28.7	94	27.2	0	0	---	0.00	29.522 
09:05	28.7	28.7	28.7	94	27.2	0	0	---	0.00	29.522 
09:10	28.7	28.7	28.7	94	27.2	0	0	---	0.00	29.522 
09:15	28.7	28.7	28.7	94	27.2	0	0	---	0.00	29.514 
09:20	28.7	28.7	28.7	94	27.2	0	0	---	0.00	29.514 
09:25	28.8	28.8	28.8	94	27.3	0	0	---	0.00	29.514 
09:30	28.8	28.8	28.8	94	27.3	0	0	---	0.00	29.528 
09:35	28.8	28.8	28.8	94	27.3	0	0	---	0.00	29.528 
09:40	28.7	28.7	28.7	94	27.2	0	0	---	0.00	29.528 
09:45	28.7	28.7	28.7	94	27.2	0	0	---	0.00	29.531 
09:50	28.7	28.7	28.7	94	27.2	0	0	---	0.00	29.531 
09:55	28.7	28.7	28.7	94	27.2	0	0	---	0.00	29.531 
10:00	28.7	28.7	28.7	94	27.2	0	0	---	0.00	29.558 
10:05	28.7	28.7	28.7	94	27.2	0	0	---	0.00	29.558 
10:10	28.7	28.7	28.7	94	27.2	0	0	---	0.00	29.558 
10:15	28.7	28.7	28.7	94	27.2	0	0	---	0.00	29.587 
10:20	28.7	28.7	28.7	94	27.2	0	0	---	0.00	29.587 
10:25	28.7	28.7	28.7	94	27.2	0	0	---	0.00	29.587 
10:30	28.7	28.7	28.7	94	27.2	0	0	---	0.00	29.585 
10:35	28.7	28.7	28.7	94	27.2	0	0	---	0.00	29.585 
10:40	28.7	28.7	28.7	94	27.2	0	0	---	0.00	29.585 
10:45	28.7	28.7	28.7	94	27.2	0	0	---	0.00	29.592 
10:50	28.7	28.7	28.7	94	27.2	0	0	---	0.00	29.592 
10:55	28.7	28.7	28.7	94	27.2	0	0	---	0.00	29.592 
11:00	28.7	28.7	28.7	94	27.2	0	0	---	0.00	29.592 
11:05	28.7	28.7	28.7	94	27.2	0	0	---	0.00	29.592 
11:10	28.7	28.7	28.7	94	27.2	0	0	---	0.00	29.592 
11:15	28.8	28.8	28.8	94	27.3	0	0	---	0.00	29.608 
11:20	29.0	29.0	29.0	94	27.5	0	0	---	0.00	29.608 
11:25	29.1	29.1	29.1	94	27.6	0	0	---	0.00	29.608 
11:30	29.3	29.3	29.3	94	27.8	0	0	---	0.00	29.613 
11:35	29.4	29.4	29.4	94	27.9	0	0	---	0.00	29.613 
11:40	29.5	29.5	29.5	94	28.0	0	0	---	0.00	29.613 
11:45	29.7	29.7	29.7	94	28.2	0	0	---	0.00	29.624 
11:50	29.7	29.7	29.7	94	28.2	0	0	---	0.00	29.624 
11:55	29.7	29.7	29.7	94	28.2	0	0	---	0.00	29.624 
12:00	29.7	29.7	29.7	94	28.2	0	0	---	0.00	29.638 
12:05	29.4	29.4	29.4	94	27.9	0	0	---	0.00	29.638 
12:10	29.4	29.4	29.4	94	27.9	0	0	---	0.00	29.638 
12:15	29.4	29.4	29.4	94	27.9	0	0	---	0.00	29.648 
12:20	29.3	29.3	29.3	94	27.8	0	0	---	0.00	29.648 
12:25	29.3	29.3	29.3	94	27.8	0	0	---	0.00	29.648 
12:30	29.3	29.3	29.3	94	27.8	0	0	---	0.00	29.656 
12:35	29.3	29.3	29.3	94	27.8	0	0	---	0.00	29.656 
12:40	29.3	29.3	29.3	94	27.8	0	0	---	0.01	29.656 
12:45	29.4	29.4	29.4	94	27.9	0	0	---	0.00	29.662 
12:50	29.7	29.7	29.7	94	28.2	0	0	---	0.00	29.662 
12:55	29.8	29.8	29.8	94	28.3	0	0	---	0.00	29.662 
13:00	29.8	29.8	29.8	94	28.3	0	0	---	0.00	29.672 
13:05	29.8	29.8	29.8	94	28.3	0	0	---	0.00	29.672 
13:10	30.0	30.0	30.0	94	28.5	0	0	---	0.00	29.672 
13:15	30.1	30.1	30.1	94	28.6	0	0	---	0.00	29.685 
13:20	30.1	30.1	30.1	94	28.6	0	0	---	0.01	29.685 
13:25	30.0	30.0	30.0	94	28.5	0	0	---	0.00	29.685 
13:30	30.0	30.0	30.0	94	28.5	0	0	---	0.00	29.694 
13:35	30.0	30.0	30.0	94	28.5	0	0	---	0.00	29.694 
13:40	30.1	30.1	30.1	94	28.6	0	0	---	0.00	29.694 
13:45	30.3	30.3	30.3	93	28.5	0	0	---	0.01	29.702 
13:50	30.1	30.1	30.1	93	28.3	0	0	---	0.00	29.702 
13:55	30.0	30.0	30.0	93	28.2	0	0	---	0.00	29.702 
14:00	29.7	29.7	29.7	93	27.9	0	0	---	0.01	29.713 
14:05	29.7	29.7	29.7	93	27.9	0	0	---	0.00	29.713 
14:10	29.7	29.7	29.7	93	27.9	0	0	---	0.00	29.713 
14:15	29.7	29.7	29.7	93	27.9	0	0	---	0.00	29.720 
14:20	29.5	29.5	29.5	93	27.7	0	0	---	0.01	29.720 
14:25	29.5	29.5	29.5	93	27.7	0	0	---	0.00	29.720 
14:30	29.7	29.7	29.7	93	27.9	0	0	---	0.00	29.731 
14:35	29.7	29.7	29.7	92	27.7	0	0	---	0.00	29.731 
14:40	29.4	29.4	29.4	92	27.4	0	0	---	0.01	29.731 
14:45	29.4	29.4	29.4	92	27.4	0	0	---	0.00	29.739 
14:50	29.5	29.5	29.5	92	27.5	0	0	---	0.00	29.739 
14:55	29.8	29.8	29.8	92	27.8	0	0	---	0.01	29.739 
15:00	30.0	30.0	30.0	91	27.7	0	0	---	0.00	29.740 
15:05	30.0	30.0	30.0	91	27.7	0	0	---	0.00	29.740 
15:10	29.8	29.8	29.8	90	27.2	0	0	---	0.01	29.740 
15:15	29.7	29.7	29.7	89	26.9	0	0	---	0.00	29.751 
15:20	29.5	29.5	29.5	88	26.4	0	0	---	0.00	29.751 
15:25	29.4	29.4	29.4	88	26.3	0	0	---	0.01	29.751 
15:30	29.1	29.1	29.1	87	25.7	0	0	---	0.00	29.764 
15:35	29.0	29.0	29.0	86	25.3	0	0	---	0.00	29.764 
15:40	29.1	29.1	29.1	86	25.4	0	0	---	0.00	29.764 
15:45	29.3	29.3	29.3	86	25.6	0	0	---	0.01	29.770 
15:50	29.1	29.1	29.1	85	25.2	0	0	---	0.00	29.770 
15:55	29.4	29.4	29.4	85	25.5	0	0	---	0.00	29.770 
16:00	29.7	29.7	29.7	85	25.8	0	0	---	0.00	29.775 
16:05	29.8	29.8	29.8	84	25.6	0	0	---	0.01	29.775 
16:10	30.0	30.0	30.0	84	25.8	0	0	---	0.00	29.775 
16:15	30.3	30.3	30.3	84	26.1	0	0	---	0.00	29.782 
16:20	30.3	30.3	30.3	83	25.8	0	0	---	0.01	29.782 
16:25	30.3	30.3	30.3	81	25.2	0	0	---	0.00	29.782 
16:30	30.0	30.0	30.0	80	24.6	0	0	---	0.01	29.797 
16:35	29.8	29.8	29.8	80	24.4	0	0	---	0.00	29.797 
16:40	29.7	29.7	29.7	80	24.3	0	0	---	0.00	29.797 
16:45	29.4	29.4	29.4	79	23.7	0	0	---	0.00	29.807 
16:50	29.3	29.3	29.3	78	23.3	0	0	---	0.01	29.807 
16:55	29.3	29.3	29.3	79	23.6	0	0	---	0.00	29.807 
17:00	29.5	29.5	29.5	78	23.5	0	0	---	0.00	29.820 
17:05	29.3	29.3	29.3	74	22.1	0	0	---	0.00	29.820 
17:10	28.5	28.5	28.5	72	20.6	0	0	---	0.00	29.820 
17:15	28.2	28.2	28.2	72	20.4	0	0	---	0.01	29.832 
17:20	28.5	28.5	28.5	74	21.3	0	0	---	0.00	29.832 
17:25	28.7	28.7	28.7	72	20.8	0	0	---	0.00	29.832 
17:30	28.8	28.8	28.8	72	20.9	0	0	---	0.00	29.836 
17:35	29.1	29.1	29.1	72	21.2	0	0	---	0.00	29.836 
17:40	28.8	28.8	28.8	71	20.6	0	0	---	0.00	29.836 
17:45	28.7	28.7	28.7	72	20.8	0	0	---	0.01	29.850 
17:50	29.0	29.0	29.0	76	22.4	0	0	---	0.00	29.850 
17:55	28.7	28.7	28.7	77	22.4	0	0	---	0.00	29.850 
18:00	28.1	28.1	28.1	79	22.4	0	0	---	0.00	29.863 
18:05	27.8	27.8	27.8	80	22.4	0	0	---	0.00	29.863 
18:10	27.3	27.3	27.3	80	22.0	0	0	---	0.00	29.863 
18:15	27.2	27.2	27.2	81	22.2	0	0	---	0.00	29.872 
18:20	27.0	27.0	27.0	81	22.0	0	0	---	0.00	29.872 
18:25	26.7	26.7	26.7	81	21.7	0	0	---	0.00	29.872 
18:30	26.4	26.4	26.4	81	21.4	0	0	---	0.00	29.884 
18:35	26.1	26.1	26.1	82	21.4	0	0	---	0.00	29.884 
18:40	25.8	25.8	25.8	82	21.1	0	0	---	0.00	29.884 
18:45	25.7	25.7	25.7	82	21.0	0	0	---	0.00	29.900 
18:50	25.4	25.4	25.4	81	20.4	0	0	---	0.00	29.900 
18:55	25.0	25.0	25.0	81	20.0	0	0	---	0.00	29.900 
19:00	24.8	24.8	24.8	81	19.8	0	0	---	0.00	29.912 
19:05	24.5	24.5	24.5	81	19.5	0	0	---	0.00	29.912 
19:10	24.4	24.4	24.4	81	19.4	0	0	---	0.00	29.912 
19:15	24.2	24.2	24.2	81	19.2	0	0	---	0.00	29.927 
19:20	24.1	24.1	24.1	81	19.1	0	0	---	0.00	29.927 
19:25	23.9	23.9	23.9	81	18.9	0	0	---	0.00	29.927 
19:30	23.8	23.8	23.8	81	18.8	0	0	---	0.00	29.938 
19:35	23.8	23.8	23.8	81	18.8	0	0	---	0.00	29.938 
19:40	23.6	23.6	23.6	81	18.6	0	0	---	0.00	29.938 
19:45	23.5	23.5	23.5	81	18.5	0	0	---	0.00	29.947 
19:50	23.0	23.0	23.0	80	17.8	0	0	---	0.00	29.947 
19:55	22.5	22.5	22.5	80	17.3	0	0	---	0.00	29.947 
20:00	22.1	22.1	22.1	79	16.6	0	0	---	0.00	29.956 
20:05	21.8	21.8	21.8	79	16.3	0	0	---	0.00	29.956 
20:10	21.6	21.6	21.6	79	16.1	0	0	---	0.00	29.956 
20:15	21.3	21.3	21.3	80	16.1	0	0	---	0.00	29.968 
20:20	21.0	21.0	21.0	79	15.5	0	0	---	0.00	29.968 
20:25	20.6	20.6	20.6	79	15.1	0	0	---	0.00	29.968 
20:30	20.3	20.3	20.3	79	14.8	0	0	---	0.00	29.975 
20:35	20.2	20.2	20.2	79	14.8	0	0	---	0.00	29.975 
20:40	20.0	20.0	20.0	79	14.6	0	0	---	0.00	29.975 
20:45	20.0	20.0	20.0	79	14.6	0	0	---	0.00	29.984 
20:50	19.9	19.9	19.9	79	14.5	0	0	---	0.00	29.984 
20:55	19.7	19.7	19.7	79	14.3	0	0	---	0.00	29.984 
21:00	19.5	19.5	19.5	79	14.1	0	0	---	0.00	29.991 
21:05	19.4	19.4	19.4	79	14.0	0	0	---	0.00	29.991 
21:10	19.1	19.1	19.1	79	13.7	0	0	---	0.00	29.991 
21:15	18.9	18.9	18.9	79	13.5	0	0	---	0.00	30.002 
21:20	18.8	18.8	18.8	79	13.4	0	0	---	0.00	30.002 
21:25	18.6	18.6	18.6	79	13.2	0	0	---	0.00	30.002 
21:30	18.4	18.4	18.4	79	13.0	0	0	---	0.00	30.009 
21:35	18.3	18.3	18.3	79	12.9	0	0	---	0.00	30.009 
21:40	18.1	18.1	18.1	79	12.7	0	0	---	0.00	30.009 
21:45	18.0	18.0	18.0	79	12.6	0	0	---	0.00	30.018 
21:50	17.8	17.8	17.8	79	12.4	0	0	---	0.00	30.018 
21:55	17.7	17.7	17.7	79	12.3	0	0	---	0.00	30.018 
22:00	17.5	17.5	17.5	79	12.1	0	0	---	0.00	30.026 
22:05	17.2	17.2	17.2	79	11.8	0	0	---	0.00	30.026 
22:10	17.0	17.0	17.0	79	11.6	0	0	---	0.00	30.026 
22:15	17.0	17.0	17.0	79	11.6	0	0	---	0.00	30.032 
22:20	16.9	16.9	16.9	79	11.5	0	0	---	0.00	30.032 
22:25	16.7	16.7	16.7	79	11.3	0	0	---	0.00	30.032 
22:30	16.5	16.5	16.5	79	11.1	0	0	---	0.00	30.037 
22:35	16.4	16.4	16.4	79	11.0	0	0	---	0.00	30.037 
22:40	16.1	16.1	16.1	79	10.8	0	0	---	0.00	30.037 
22:45	15.9	15.9	15.9	79	10.6	0	0	---	0.00	30.042 
22:50	15.7	15.7	15.7	79	10.4	0	0	---	0.00	30.042 
22:55	15.6	15.6	15.6	79	10.3	0	0	---	0.00	30.042 
23:00	15.4	15.4	15.4	79	10.1	0	0	---	0.00	30.045 
23:05	15.2	15.2	15.2	80	10.2	0	0	---	0.00	30.045 
23:10	14.9	14.9	14.9	80	9.9	0	0	---	0.00	30.045 
23:15	14.8	14.8	14.8	80	9.8	0	0	---	0.00	30.050 
23:20	14.8	14.8	14.8	80	9.8	0	0	---	0.00	30.050 
23:25	14.6	14.6	14.6	80	9.6	0	0	---	0.00	30.050 
23:30	14.6	14.6	14.6	80	9.6	0	0	---	0.00	30.051 
23:35	14.4	14.4	14.4	80	9.4	0	0	---	0.00	30.051 
23:40	14.4	14.4	14.4	81	9.7	0	0	---	0.00	30.051 
23:45	14.4	14.4	14.4	81	9.7	0	0	---	0.00	30.053 
23:50	14.4	14.4	14.4	81	9.7	0	0	---	0.00	30.053 
23:55	14.3	14.3	14.3	81	9.6	0	0	---	0.00	30.053 

CoCoRaHS
IN-AL-39
A2 Web Hosting
Creative Commons License
GoDaddy
search engine by freefind advanced

loaded 2018-11-22 06:24:30 • last modified 2010-11-18 10:43:29
Privacy PolicyDisclaimer
• wx.awcolley.com is powered by PmWiki v.2002016 •
• all content (unless otherwise noted) © 2018 A W Colley